Time;durP1;ratioP1;P1;durP2;ratioP2;P2;SDS_P1;SDS_P2;PMS_P1;PMS_P2;Temp;Humidity;BMP_temperature;BMP_pressure;BME280_temperature;BME280_humidity;BME280_pressure;Samples;Min_cycle;Max_cycle;Signal;HPM_P1;HPM_P2
2023/12/17 00:01:21;;;;;;;36.60;28.33;;;;;;;10.30;100.00;103581.75;3610346;39;20048;-64
2023/12/17 00:03:47;;;;;;;32.55;27.67;;;;;;;10.31;100.00;103575.47;3608647;39;20067;-64
2023/12/17 00:06:12;;;;;;;33.50;27.02;;;;;;;10.31;100.00;103572.78;3608267;39;20056;-64
2023/12/17 00:08:38;;;;;;;34.70;28.77;;;;;;;10.33;100.00;103567.38;3606870;39;20299;-65
2023/12/17 00:11:04;;;;;;;35.72;29.90;;;;;;;10.32;100.00;103568.28;3606722;39;20054;-65
2023/12/17 00:13:29;;;;;;;34.95;29.17;;;;;;;10.31;100.00;103562.03;3607058;39;20334;-65
2023/12/17 00:15:55;;;;;;;32.95;29.13;;;;;;;10.23;100.00;103548.66;3610911;39;20055;-65
2023/12/17 00:18:20;;;;;;;33.08;28.30;;;;;;;10.32;100.00;103560.22;3610103;39;20047;-65
2023/12/17 00:20:46;;;;;;;35.42;29.73;;;;;;;10.32;100.00;103558.44;3607674;39;20109;-65
2023/12/17 00:23:12;;;;;;;34.05;28.85;;;;;;;10.33;100.00;103560.19;3610443;39;20379;-65
2023/12/17 00:25:37;;;;;;;34.70;28.42;;;;;;;10.34;100.00;103558.38;3610347;39;20050;-65
2023/12/17 00:28:03;;;;;;;29.15;25.13;;;;;;;10.39;100.00;103559.22;3609330;39;20051;-64
2023/12/17 00:30:29;;;;;;;34.22;28.83;;;;;;;10.36;100.00;103560.13;3612846;39;20047;-65
2023/12/17 00:32:54;;;;;;;35.45;28.35;;;;;;;10.37;100.00;103558.34;3607931;39;20073;-64
2023/12/17 00:35:21;;;;;;;35.22;27.83;;;;;;;10.36;100.00;103546.69;3607269;39;20051;-65
2023/12/17 00:37:46;;;;;;;33.95;28.02;;;;;;;10.35;100.00;103549.44;3608802;39;20091;-65
2023/12/17 00:40:12;;;;;;;35.20;28.00;;;;;;;9.33;100.00;103362.13;3611014;39;20054;-64
2023/12/17 00:42:38;;;;;;;34.47;27.30;;;;;;;10.36;100.00;103543.13;3612403;39;20130;-65
2023/12/17 00:45:04;;;;;;;37.65;30.27;;;;;;;10.35;100.00;103542.25;3606237;39;20054;-65
2023/12/17 00:47:29;;;;;;;39.47;30.75;;;;;;;10.35;100.00;103535.97;3608312;39;20051;-65
2023/12/17 00:49:55;;;;;;;37.67;30.45;;;;;;;10.34;100.00;103535.09;3608273;39;20054;-65
2023/12/17 00:52:21;;;;;;;36.83;30.02;;;;;;;10.31;100.00;103537.84;3608130;39;20070;-65
2023/12/17 00:54:48;;;;;;;37.30;29.48;;;;;;;10.29;100.00;103528.91;3607885;39;20396;-65
2023/12/17 00:57:14;;;;;;;35.97;28.83;;;;;;;10.34;100.00;103537.78;3609256;39;20390;-65
2023/12/17 00:59:40;;;;;;;39.78;30.35;;;;;;;10.33;100.00;103536.00;3606824;39;20051;-65
2023/12/17 01:02:06;;;;;;;39.08;29.92;;;;;;;10.32;100.00;103531.53;3606683;39;20043;-65
2023/12/17 01:04:32;;;;;;;38.20;29.30;;;;;;;10.34;100.00;103529.72;3606135;39;20099;-64
2023/12/17 01:06:58;;;;;;;40.70;30.73;;;;;;;10.35;100.00;103520.72;3607584;39;20059;-65
2023/12/17 01:09:23;;;;;;;38.83;29.75;;;;;;;10.36;100.00;103511.75;3608494;39;20376;-65
2023/12/17 01:11:49;;;;;;;39.92;29.83;;;;;;;10.36;100.00;103519.81;3606148;39;20729;-65
2023/12/17 01:14:14;;;;;;;37.25;29.38;;;;;;;10.36;100.00;103503.66;3607998;39;20048;-64
2023/12/17 01:16:40;;;;;;;38.83;28.27;;;;;;;10.30;100.00;103503.78;3606898;39;20050;-64
2023/12/17 01:19:06;;;;;;;36.42;29.20;;;;;;;10.38;100.00;103507.22;3608833;39;20417;-64
2023/12/17 01:21:31;;;;;;;40.10;29.52;;;;;;;10.34;100.00;103502.84;3608054;39;20362;-64
2023/12/17 01:23:58;;;;;;;35.78;27.80;;;;;;;10.36;100.00;103517.13;3607290;39;20047;-65
2023/12/17 01:26:26;;;;;;;34.65;27.90;;;;;;;10.12;100.00;103471.84;3606668;39;20449;-64
2023/12/17 01:28:56;;;;;;;36.53;28.13;;;;;;;10.34;100.00;103505.53;3606365;39;20087;-64
2023/12/17 01:31:22;;;;;;;35.72;27.52;;;;;;;10.35;100.00;103501.91;3607573;39;20116;-63
2023/12/17 01:33:47;;;;;;;35.17;27.25;;;;;;;10.36;100.00;103506.38;3603966;39;20051;-64
2023/12/17 01:36:13;;;;;;;32.38;26.33;;;;;;;10.35;100.00;103526.09;3604938;39;20066;-64
2023/12/17 01:38:39;;;;;;;31.75;25.75;;;;;;;10.38;100.00;103534.13;3606274;39;20047;-64
2023/12/17 01:41:06;;;;;;;32.22;26.10;;;;;;;10.36;100.00;103525.19;3606000;39;20445;-64
2023/12/17 01:43:32;;;;;;;30.80;25.30;;;;;;;10.37;100.00;103531.44;3606372;39;20046;-64
2023/12/17 01:45:59;;;;;;;32.63;24.45;;;;;;;10.38;100.00;103526.06;3606333;39;20055;-64
2023/12/17 01:48:26;;;;;;;29.42;23.90;;;;;;;10.38;100.00;103531.44;3607686;39;20054;-65
2023/12/17 01:50:54;;;;;;;29.13;23.98;;;;;;;10.38;100.00;103539.50;3606938;39;20071;-64
2023/12/17 01:53:21;;;;;;;30.20;24.35;;;;;;;10.38;100.00;103533.25;3613693;39;20051;-65
2023/12/17 01:55:49;;;;;;;28.33;23.52;;;;;;;10.14;100.00;103489.69;3606850;39;20091;-64
2023/12/17 01:58:17;;;;;;;30.38;24.02;;;;;;;10.38;100.00;103531.44;3605764;39;20059;-65
2023/12/17 02:00:44;;;;;;;29.55;23.67;;;;;;;10.32;100.00;103528.84;3605563;39;20044;-65
2023/12/17 02:03:10;;;;;;;30.48;23.35;;;;;;;10.38;100.00;103547.56;3608342;39;20055;-64
2023/12/17 02:05:36;;;;;;;29.73;23.25;;;;;;;10.38;100.00;103544.88;3606241;39;20160;-64
2023/12/17 02:08:03;;;;;;;28.38;22.98;;;;;;;10.38;100.00;103542.19;3606845;39;20129;-63
2023/12/17 02:10:30;;;;;;;30.40;22.15;;;;;;;10.38;100.00;103536.81;3606459;39;20077;-64
2023/12/17 02:13:01;;;;;;;29.55;23.40;;;;;;;10.39;100.00;103546.66;3606185;39;20062;-63
2023/12/17 02:15:26;;;;;;;29.60;22.77;;;;;;;10.37;100.00;103540.44;3608568;39;20050;-64
2023/12/17 02:17:52;;;;;;;28.92;23.13;;;;;;;10.36;100.00;103535.94;3606025;39;20066;-64
2023/12/17 02:20:18;;;;;;;29.52;23.25;;;;;;;10.38;100.00;103539.50;3606662;39;20422;-63
2023/12/17 02:22:48;;;;;;;29.20;22.52;;;;;;;10.39;100.00;103533.19;3604495;39;20067;-63
2023/12/17 02:25:14;;;;;;;31.15;22.98;;;;;;;10.39;100.00;103538.56;3604563;39;20396;-64
2023/12/17 02:27:41;;;;;;;28.95;23.10;;;;;;;10.39;100.00;103533.19;3604167;39;20059;-64
2023/12/17 02:30:08;;;;;;;30.63;22.98;;;;;;;10.40;100.00;103529.63;3598294;39;20063;-64
2023/12/17 02:32:33;;;;;;;28.10;22.13;;;;;;;10.40;100.00;103524.25;3605742;39;20373;-64
2023/12/17 02:34:59;;;;;;;28.95;22.77;;;;;;;10.40;100.00;103517.94;3609545;39;20054;-64
2023/12/17 02:37:24;;;;;;;27.60;21.90;;;;;;;10.38;100.00;103517.09;3608013;39;20063;-64
2023/12/17 02:39:50;;;;;;;28.10;22.38;;;;;;;10.38;100.00;103527.88;3604601;39;20055;-64
2023/12/17 02:42:17;;;;;;;28.75;22.67;;;;;;;10.38;100.00;103528.75;3608295;39;20066;-64
2023/12/17 02:44:42;;;;;;;31.40;22.65;;;;;;;10.40;100.00;103535.00;3607340;39;20047;-64
2023/12/17 02:47:08;;;;;;;28.27;22.23;;;;;;;10.40;100.00;103543.06;3607245;39;20078;-64
2023/12/17 02:49:35;;;;;;;28.52;22.52;;;;;;;10.38;100.00;103528.75;3606165;39;20047;-65
2023/12/17 02:52:01;;;;;;;25.80;20.20;;;;;;;10.39;100.00;103525.13;3610023;39;20078;-65
2023/12/17 02:54:29;;;;;;;26.55;20.85;;;;;;;10.37;100.00;103518.91;3606127;39;20387;-65
2023/12/17 02:56:55;;;;;;;26.08;20.38;;;;;;;10.40;100.00;103518.84;3610265;39;20051;-64
2023/12/17 02:59:20;;;;;;;25.73;20.13;;;;;;;10.39;100.00;103526.94;3612491;39;20055;-65
2023/12/17 03:01:46;;;;;;;23.95;19.35;;;;;;;10.34;100.00;103518.97;3607252;39;20063;-65
2023/12/17 03:04:13;;;;;;;28.05;20.48;;;;;;;10.35;100.00;103523.41;3608108;39;20062;-65
2023/12/17 03:06:39;;;;;;;24.05;19.10;;;;;;;10.33;100.00;103522.53;3604938;39;20297;-65
2023/12/17 03:09:06;;;;;;;23.50;19.50;;;;;;;10.32;100.00;103512.72;3612275;39;20050;-65
2023/12/17 03:11:33;;;;;;;22.70;18.67;;;;;;;10.03;100.00;103462.13;3607956;39;20120;-64
2023/12/17 03:13:58;;;;;;;25.00;19.45;;;;;;;10.32;100.00;103507.34;3607068;39;20124;-65
2023/12/17 03:16:26;;;;;;;25.00;18.15;;;;;;;10.34;100.00;103518.06;3607976;39;20063;-65
2023/12/17 03:18:52;;;;;;;23.27;18.00;;;;;;;10.32;100.00;103520.78;3607110;39;20051;-65
2023/12/17 03:21:18;;;;;;;26.63;18.60;;;;;;;10.31;100.00;103519.03;3607910;39;20054;-65
2023/12/17 03:23:44;;;;;;;23.48;18.25;;;;;;;10.32;100.00;103510.03;3605702;39;20119;-65
2023/12/17 03:26:10;;;;;;;21.80;16.98;;;;;;;10.29;100.00;103499.31;3604528;39;20051;-65
2023/12/17 03:28:36;;;;;;;23.42;17.42;;;;;;;10.29;100.00;103498.44;3607012;39;20061;-65
2023/12/17 03:31:02;;;;;;;20.13;16.42;;;;;;;10.29;100.00;103504.69;3605426;39;20051;-65
2023/12/17 03:33:28;;;;;;;19.73;16.00;;;;;;;10.29;100.00;103498.44;3607745;39;20119;-65
2023/12/17 03:35:53;;;;;;;18.55;15.10;;;;;;;10.28;100.00;103496.69;3606863;39;20323;-65
2023/12/17 03:38:19;;;;;;;19.42;16.15;;;;;;;10.19;100.00;103479.75;3609730;39;20065;-65
2023/12/17 03:40:44;;;;;;;21.17;15.80;;;;;;;10.26;100.00;103498.47;3612354;39;20058;-65
2023/12/17 03:43:10;;;;;;;17.95;15.65;;;;;;;10.23;100.00;103494.91;3607330;39;20056;-65
2023/12/17 03:45:36;;;;;;;18.05;14.32;;;;;;;10.27;100.00;103493.06;3606172;39;20397;-65
2023/12/17 03:48:02;;;;;;;18.38;14.57;;;;;;;10.26;100.00;103490.41;3606761;39;20055;-65
2023/12/17 03:50:28;;;;;;;16.90;13.93;;;;;;;10.21;100.00;103486.00;3608395;39;20078;-65
2023/12/17 03:52:54;;;;;;;18.77;13.68;;;;;;;10.09;100.00;103458.44;3603936;39;20411;-65
2023/12/17 03:55:20;;;;;;;16.70;13.05;;;;;;;10.23;100.00;103481.47;3605764;39;20083;-65
2023/12/17 03:57:47;;;;;;;15.82;13.60;;;;;;;10.23;100.00;103488.66;3604214;39;20152;-65
2023/12/17 04:00:14;;;;;;;18.05;14.43;;;;;;;10.22;100.00;103487.75;3604025;39;20311;-65
2023/12/17 04:02:40;;;;;;;17.83;13.45;;;;;;;10.24;100.00;103485.03;3605950;39;20063;-65
2023/12/17 04:05:08;;;;;;;16.70;12.80;;;;;;;10.02;100.00;103452.28;3605674;39;20074;-65
2023/12/17 04:07:33;;;;;;;17.48;13.55;;;;;;;9.96;100.00;103431.78;3605568;39;20094;-64
2023/12/17 04:10:03;;;;;;;16.50;13.38;;;;;;;10.20;100.00;103472.56;3605769;39;20480;-65
2023/12/17 04:12:29;;;;;;;18.15;13.40;;;;;;;10.22;100.00;103471.63;3605415;39;20095;-65
2023/12/17 04:14:55;;;;;;;17.30;12.70;;;;;;;10.20;100.00;103468.06;3605777;39;20047;-65
2023/12/17 04:17:20;;;;;;;18.55;13.32;;;;;;;10.17;100.00;103472.63;3606265;39;20051;-65
2023/12/17 04:19:46;;;;;;;18.38;13.07;;;;;;;10.17;100.00;103468.13;3608524;39;20311;-65
2023/12/17 04:22:12;;;;;;;16.33;13.40;;;;;;;10.14;100.00;103465.50;3607634;39;20067;-65
2023/12/17 04:24:38;;;;;;;19.15;13.93;;;;;;;10.14;100.00;103462.81;3608967;39;20075;-65
2023/12/17 04:27:04;;;;;;;17.35;13.70;;;;;;;10.15;100.00;103461.91;3608371;39;20418;-65
2023/12/17 04:29:30;;;;;;;19.15;13.60;;;;;;;10.16;100.00;103471.75;3609804;39;20047;-65
2023/12/17 04:31:55;;;;;;;18.33;13.30;;;;;;;10.14;100.00;103457.44;3607971;39;20039;-65
2023/12/17 04:34:21;;;;;;;18.10;13.88;;;;;;;10.13;100.00;103446.72;3609026;39;20051;-65
2023/12/17 04:36:47;;;;;;;18.35;13.70;;;;;;;10.11;100.00;103451.22;3608193;39;20361;-65
2023/12/17 04:39:12;;;;;;;20.08;13.93;;;;;;;10.11;100.00;103451.22;3606828;39;20358;-64
2023/12/17 04:41:42;;;;;;;17.88;14.38;;;;;;;10.09;100.00;103470.09;3608742;39;20081;-65
2023/12/17 04:44:08;;;;;;;18.35;14.15;;;;;;;9.82;100.00;103416.81;3605580;39;20376;-65
2023/12/17 04:46:34;;;;;;;20.13;14.60;;;;;;;10.07;100.00;103471.03;3609278;39;20055;-65
2023/12/17 04:49:00;;;;;;;16.92;13.77;;;;;;;10.06;100.00;103453.13;3608775;39;20423;-65
2023/12/17 04:51:25;;;;;;;15.98;13.60;;;;;;;10.09;100.00;103463.84;3607763;39;20072;-65
2023/12/17 04:53:52;;;;;;;17.50;14.18;;;;;;;10.04;100.00;103461.19;3607509;39;20086;-65
2023/12/17 04:56:21;;;;;;;17.58;14.20;;;;;;;10.05;100.00;103462.09;3609654;39;20092;-65
2023/12/17 04:58:47;;;;;;;20.05;13.70;;;;;;;10.06;100.00;103454.00;3610181;39;20155;-65
2023/12/17 05:01:13;;;;;;;18.80;14.15;;;;;;;10.04;100.00;103454.94;3609300;39;20076;-65
2023/12/17 05:03:38;;;;;;;16.70;14.23;;;;;;;10.03;100.00;103453.19;3608169;39;20055;-64
2023/12/17 05:06:05;;;;;;;18.35;14.55;;;;;;;9.94;100.00;103438.97;3608057;39;20055;-64
2023/12/17 05:08:31;;;;;;;18.73;14.15;;;;;;;10.01;100.00;103455.88;3602379;39;20148;-64
2023/12/17 05:10:57;;;;;;;19.42;14.75;;;;;;;10.00;100.00;103452.31;3609305;39;20066;-64
2023/12/17 05:13:22;;;;;;;18.95;14.35;;;;;;;9.99;100.00;103447.88;3612231;39;20061;-64
2023/12/17 05:15:48;;;;;;;20.10;14.82;;;;;;;10.00;100.00;103444.25;3609984;39;20383;-64
2023/12/17 05:18:14;;;;;;;19.80;14.80;;;;;;;10.01;100.00;103447.81;3607083;39;20070;-64
2023/12/17 05:20:40;;;;;;;19.40;15.00;;;;;;;9.75;100.00;103400.78;3606590;39;20094;-64
2023/12/17 05:23:08;;;;;;;21.70;15.15;;;;;;;10.02;100.00;103446.91;3609854;39;20066;-64
2023/12/17 05:25:34;;;;;;;20.05;15.18;;;;;;;10.01;100.00;103450.50;3609468;39;20094;-64
2023/12/17 05:28:00;;;;;;;20.23;15.73;;;;;;;9.99;100.00;103447.88;3605082;39;20124;-64
2023/12/17 05:30:25;;;;;;;21.10;15.70;;;;;;;9.99;100.00;103444.28;3608918;39;20055;-64
2023/12/17 05:32:51;;;;;;;20.55;15.80;;;;;;;9.99;100.00;103446.97;3608943;39;20061;-64
2023/12/17 05:35:17;;;;;;;20.30;15.88;;;;;;;9.98;100.00;103451.44;3609942;39;20043;-64
2023/12/17 05:37:42;;;;;;;19.42;15.32;;;;;;;9.98;100.00;103451.44;3609160;39;20051;-64
2023/12/17 05:40:08;;;;;;;20.63;16.40;;;;;;;9.97;100.00;103455.06;3607565;39;20063;-64
2023/12/17 05:42:36;;;;;;;23.02;16.08;;;;;;;9.97;100.00;103455.06;3608675;39;20095;-65
2023/12/17 05:45:01;;;;;;;19.35;16.13;;;;;;;9.90;100.00;103439.97;3608288;39;20047;-64
2023/12/17 05:47:28;;;;;;;20.15;16.63;;;;;;;9.95;100.00;103453.28;3609699;39;20153;-64
2023/12/17 05:49:54;;;;;;;20.33;14.85;;;;;;;9.95;100.00;103456.88;3609213;39;20061;-65
2023/12/17 05:52:19;;;;;;;17.25;13.73;;;;;;;9.97;100.00;103455.06;3610673;39;20055;-64
2023/12/17 05:54:45;;;;;;;17.55;14.48;;;;;;;9.94;100.00;103455.09;3608500;39;20039;-64
2023/12/17 05:57:11;;;;;;;17.45;14.27;;;;;;;9.92;100.00;103446.16;3609384;39;20551;-64
2023/12/17 05:59:37;;;;;;;16.48;14.05;;;;;;;9.92;100.00;103435.41;3608063;39;20465;-64
2023/12/17 06:02:03;;;;;;;17.15;12.95;;;;;;;9.90;100.00;103442.63;3609392;39;20096;-64
2023/12/17 06:04:29;;;;;;;14.02;12.30;;;;;;;9.27;100.00;103338.94;3608198;39;20597;-64
2023/12/17 06:06:55;;;;;;;14.82;12.07;;;;;;;9.89;100.00;103442.66;3607473;39;20307;-64
2023/12/17 06:09:22;;;;;;;14.45;11.90;;;;;;;9.86;100.00;103440.91;3607916;39;20273;-64
2023/12/17 06:11:49;;;;;;;14.80;10.88;;;;;;;9.85;100.00;103430.19;3608875;39;20053;-69
2023/12/17 06:14:19;;;;;;;12.13;10.82;;;;;;;9.82;100.00;103449.94;3606513;39;20091;-64
2023/12/17 06:16:45;;;;;;;13.85;10.90;;;;;;;9.82;100.00;103441.88;3607190;39;20047;-64
2023/12/17 06:19:13;;;;;;;11.05;9.85;;;;;;;9.80;100.00;103446.41;3609265;39;20070;-64
2023/12/17 06:21:39;;;;;;;11.48;10.20;;;;;;;9.79;100.00;103444.59;3607785;39;20047;-64
2023/12/17 06:24:05;;;;;;;14.00;11.00;;;;;;;9.79;100.00;103447.28;3607994;39;20054;-64
2023/12/17 06:26:31;;;;;;;11.57;10.05;;;;;;;9.81;100.00;103448.16;3605022;39;20051;-64
2023/12/17 06:28:57;;;;;;;13.02;10.45;;;;;;;9.63;100.00;103411.75;3608061;39;20376;-64
2023/12/17 06:31:24;;;;;;;15.13;10.82;;;;;;;9.81;100.00;103448.16;3609675;39;20048;-64
2023/12/17 06:33:53;;;;;;;13.15;11.00;;;;;;;9.81;100.00;103440.09;3607259;39;20063;-64
2023/12/17 06:36:20;;;;;;;12.40;10.07;;;;;;;9.66;100.00;103410.81;3599104;39;20597;-64
2023/12/17 06:38:46;;;;;;;12.32;10.35;;;;;;;9.83;100.00;103446.34;3607783;39;20055;-64
2023/12/17 06:41:12;;;;;;;14.45;11.63;;;;;;;9.81;100.00;103453.53;3606343;39;20052;-64
2023/12/17 06:43:40;;;;;;;15.82;13.15;;;;;;;9.79;100.00;103439.22;3607461;39;20091;-64
2023/12/17 06:46:07;;;;;;;16.73;13.25;;;;;;;9.80;100.00;103443.72;3606683;39;20654;-64
2023/12/17 06:48:36;;;;;;;20.52;14.80;;;;;;;9.77;100.00;103452.72;3609489;39;20047;-63
2023/12/17 06:51:03;;;;;;;18.42;15.07;;;;;;;9.76;100.00;103447.34;3605973;39;20381;-64
2023/12/17 06:53:29;;;;;;;16.30;14.57;;;;;;;9.75;100.00;103450.94;3610566;39;20672;-64
2023/12/17 06:55:55;;;;;;;20.02;14.95;;;;;;;9.75;100.00;103449.16;3605564;39;20066;-64
2023/12/17 06:58:21;;;;;;;20.70;15.35;;;;;;;9.74;100.00;103449.19;3608029;39;20067;-64
2023/12/17 07:00:47;;;;;;;18.20;15.15;;;;;;;9.55;100.00;103411.00;3605480;39;20086;-64
2023/12/17 07:03:13;;;;;;;17.20;14.20;;;;;;;9.70;100.00;103436.69;3606486;39;20085;-64
2023/12/17 07:05:39;;;;;;;18.60;13.63;;;;;;;9.69;100.00;103434.94;3606110;39;20054;-64
2023/12/17 07:08:05;;;;;;;17.50;13.30;;;;;;;9.67;100.00;103439.44;3608012;39;20128;-64
2023/12/17 07:10:31;;;;;;;15.80;13.07;;;;;;;9.65;100.00;103441.28;3608370;39;20121;-64
2023/12/17 07:12:57;;;;;;;16.42;13.10;;;;;;;9.64;100.00;103434.09;3606318;39;20390;-64
2023/12/17 07:15:22;;;;;;;17.40;13.82;;;;;;;9.62;100.00;103436.84;3598366;39;20413;-64
2023/12/17 07:17:48;;;;;;;17.27;12.15;;;;;;;9.61;100.00;103442.22;3608470;39;20058;-64
2023/12/17 07:20:13;;;;;;;13.02;11.63;;;;;;;9.51;100.00;103423.59;3606038;39;20051;-65
2023/12/17 07:22:39;;;;;;;13.38;11.25;;;;;;;9.60;100.00;103448.50;3605469;39;20361;-64
2023/12/17 07:25:05;;;;;;;15.02;11.48;;;;;;;9.60;100.00;103444.00;3606047;39;20082;-65
2023/12/17 07:27:31;;;;;;;17.75;12.30;;;;;;;9.61;100.00;103447.59;3607344;39;20257;-64
2023/12/17 07:29:56;;;;;;;15.82;11.75;;;;;;;9.59;100.00;103441.38;3607470;39;20072;-64
2023/12/17 07:32:22;;;;;;;15.75;11.80;;;;;;;9.58;100.00;103434.19;3609747;39;20053;-64
2023/12/17 07:34:47;;;;;;;14.98;11.85;;;;;;;9.54;100.00;103439.63;3610667;39;20059;-64
2023/12/17 07:37:13;;;;;;;17.27;12.38;;;;;;;9.58;100.00;103450.31;3606156;39;20063;-64
2023/12/17 07:39:39;;;;;;;16.27;12.30;;;;;;;9.56;100.00;103461.09;3607567;39;20059;-64
2023/12/17 07:42:04;;;;;;;16.10;12.27;;;;;;;9.54;100.00;103461.09;3606915;39;20055;-64
2023/12/17 07:44:30;;;;;;;16.33;11.95;;;;;;;9.55;100.00;103467.38;3607771;39;20137;-64
2023/12/17 07:46:57;;;;;;;13.32;11.10;;;;;;;9.52;100.00;103462.94;3611054;39;20059;-64
2023/12/17 07:49:23;;;;;;;13.60;11.10;;;;;;;9.48;100.00;103455.84;3609550;39;20132;-64
2023/12/17 07:51:49;;;;;;;14.32;11.77;;;;;;;9.50;100.00;103461.19;3607838;39;20313;-65
2023/12/17 07:54:15;;;;;;;13.52;10.68;;;;;;;9.40;100.00;103456.88;3607567;39;20132;-65
2023/12/17 07:56:41;;;;;;;12.65;9.80;;;;;;;9.49;100.00;103468.34;3611012;39;20051;-64
2023/12/17 07:59:06;;;;;;;15.65;10.85;;;;;;;9.46;100.00;103467.53;3608142;39;20057;-64
2023/12/17 08:01:33;;;;;;;13.05;10.23;;;;;;;9.44;100.00;103472.00;3610533;39;20051;-64
2023/12/17 08:04:00;;;;;;;13.45;10.40;;;;;;;8.80;100.00;103363.78;3609286;39;20055;-65
2023/12/17 08:06:26;;;;;;;10.88;9.07;;;;;;;9.42;100.00;103474.72;3608471;39;20090;-64
2023/12/17 08:08:56;;;;;;;11.18;9.23;;;;;;;9.37;99.95;103476.59;3608220;39;20050;-65
2023/12/17 08:11:22;;;;;;;10.52;9.10;;;;;;;9.33;100.00;103472.19;3610078;39;20055;-65
2023/12/17 08:13:48;;;;;;;11.88;9.35;;;;;;;9.20;100.00;103455.34;3610185;39;20086;-64
2023/12/17 08:16:13;;;;;;;10.70;9.07;;;;;;;9.33;100.00;103466.81;3608244;39;20073;-65
2023/12/17 08:18:39;;;;;;;10.85;9.15;;;;;;;9.30;100.00;103478.47;3609844;39;20311;-64
2023/12/17 08:21:05;;;;;;;12.80;10.30;;;;;;;9.28;99.55;103476.72;3611157;39;20076;-64
2023/12/17 08:23:31;;;;;;;12.60;9.57;;;;;;;9.24;99.91;103466.94;3608527;39;20107;-64
2023/12/17 08:25:57;;;;;;;11.93;9.90;;;;;;;9.20;100.00;103473.25;3609495;39;20407;-64
2023/12/17 08:28:24;;;;;;;11.98;9.50;;;;;;;9.20;100.00;103475.94;3611069;39;20057;-64
2023/12/17 08:30:50;;;;;;;13.00;10.43;;;;;;;9.18;99.83;103480.44;3608998;39;20410;-64
2023/12/17 08:33:16;;;;;;;12.45;10.50;;;;;;;9.16;100.00;103484.94;3609512;39;20063;-64
2023/12/17 08:35:45;;;;;;;13.43;10.05;;;;;;;9.15;99.83;103480.47;3608615;39;20111;-64
2023/12/17 08:38:11;;;;;;;12.35;10.18;;;;;;;9.14;99.87;103481.41;3610535;39;20063;-64
2023/12/17 08:40:40;;;;;;;11.13;9.77;;;;;;;9.13;100.00;103484.97;3607771;39;20055;-64
2023/12/17 08:43:08;;;;;;;12.68;10.38;;;;;;;9.14;99.78;103494.81;3610081;39;20051;-65
2023/12/17 08:45:35;;;;;;;12.75;10.48;;;;;;;8.86;99.44;103444.19;3607127;39;20140;-64
2023/12/17 08:48:02;;;;;;;12.27;10.43;;;;;;;9.07;99.75;103488.63;3607499;39;20058;-64
2023/12/17 08:50:28;;;;;;;13.07;11.07;;;;;;;9.06;98.75;103485.03;3606922;39;20621;-65
2023/12/17 08:52:54;;;;;;;13.10;10.07;;;;;;;9.05;98.65;103488.66;3607187;39;20473;-66
2023/12/17 08:55:20;;;;;;;13.70;10.60;;;;;;;9.05;99.75;103488.66;3607072;39;20058;-64
2023/12/17 08:57:47;;;;;;;12.90;10.65;;;;;;;9.05;99.22;103483.28;3604550;39;20053;-65
2023/12/17 09:00:13;;;;;;;13.25;10.65;;;;;;;8.77;99.78;103444.28;3608694;39;20065;-64
2023/12/17 09:02:39;;;;;;;14.30;10.98;;;;;;;8.88;99.90;103458.47;3608379;39;20066;-65
2023/12/17 09:05:06;;;;;;;13.77;11.10;;;;;;;8.68;100.00;103422.94;3608702;39;20043;-64
2023/12/17 09:07:32;;;;;;;18.13;12.65;;;;;;;9.10;99.96;103490.38;3607869;39;20066;-64
2023/12/17 09:09:58;;;;;;;17.02;12.27;;;;;;;9.04;99.75;103484.19;3610261;39;20059;-64
2023/12/17 09:12:24;;;;;;;17.75;12.50;;;;;;;9.02;98.95;103488.69;3611204;39;20094;-65
2023/12/17 09:14:50;;;;;;;19.90;13.80;;;;;;;8.94;99.60;103484.31;3608963;39;20051;-64
2023/12/17 09:17:16;;;;;;;18.33;13.63;;;;;;;8.90;99.45;103486.16;3607237;39;20059;-64
2023/12/17 09:19:41;;;;;;;20.30;13.82;;;;;;;8.91;100.00;103489.72;3607401;39;20088;-64
2023/12/17 09:22:07;;;;;;;17.73;12.23;;;;;;;8.88;99.66;103493.34;3607215;39;20129;-64
2023/12/17 09:24:33;;;;;;;17.88;12.90;;;;;;;8.84;98.70;103497.81;3605378;39;21238;-64
2023/12/17 09:27:00;;;;;;;17.30;12.35;;;;;;;8.84;100.00;103486.22;3609540;39;20059;-65
2023/12/17 09:29:26;;;;;;;18.75;13.07;;;;;;;8.80;99.03;103492.53;3609586;39;20051;-64
2023/12/17 09:31:51;;;;;;;16.70;12.23;;;;;;;8.77;99.20;103497.94;3608479;39;20458;-65
2023/12/17 09:34:17;;;;;;;19.70;14.00;;;;;;;8.72;98.70;103489.94;3610018;39;20071;-64
2023/12/17 09:36:43;;;;;;;23.15;16.13;;;;;;;8.74;99.17;103492.59;3611659;39;20054;-64
2023/12/17 09:39:09;;;;;;;20.30;14.18;;;;;;;8.69;98.95;103495.34;3607097;39;20063;-65
2023/12/17 09:41:35;;;;;;;18.15;12.93;;;;;;;8.55;98.84;103482.06;3609965;39;20314;-64
2023/12/17 09:44:04;;;;;;;18.92;13.57;;;;;;;8.63;98.95;103494.50;3607742;39;20066;-64
2023/12/17 09:46:30;;;;;;;20.10;13.50;;;;;;;8.65;99.47;103500.75;3609476;39;20067;-64
2023/12/17 09:48:55;;;;;;;18.98;13.23;;;;;;;8.64;99.92;103491.81;3605545;39;20100;-64
2023/12/17 09:51:27;;;;;;;18.85;13.52;;;;;;;8.61;99.69;103497.22;3607044;39;20304;-65
2023/12/17 09:53:54;;;;;;;20.20;14.02;;;;;;;8.33;99.53;103443.84;3600402;39;20039;-64
2023/12/17 09:56:20;;;;;;;19.60;13.20;;;;;;;8.59;99.34;103494.56;3601125;39;20063;-64
2023/12/17 09:58:46;;;;;;;19.70;13.45;;;;;;;8.57;99.14;103493.69;3607940;39;20078;-65
2023/12/17 10:01:12;;;;;;;20.77;14.75;;;;;;;8.64;99.83;103490.94;3604002;39;20456;-64
2023/12/17 10:03:37;;;;;;;21.98;14.43;;;;;;;8.62;99.03;103488.25;3607066;39;20050;-64
2023/12/17 10:06:04;;;;;;;18.77;13.73;;;;;;;8.65;99.55;103488.22;3603946;39;20129;-64
2023/12/17 10:08:31;;;;;;;22.65;14.60;;;;;;;8.44;99.17;103472.38;3606218;39;20402;-64
2023/12/17 10:10:56;;;;;;;21.75;15.23;;;;;;;8.59;99.34;103497.25;3605194;39;20051;-64
2023/12/17 10:13:23;;;;;;;22.17;15.93;;;;;;;8.25;98.45;103445.72;3610019;39;20058;-64
2023/12/17 10:15:54;;;;;;;22.60;16.33;;;;;;;8.55;98.46;103503.53;3606487;39;20103;-64
2023/12/17 10:18:22;;;;;;;23.15;15.60;;;;;;;8.57;99.54;103501.72;3609279;39;20345;-64
2023/12/17 10:20:49;;;;;;;22.98;14.68;;;;;;;8.58;98.84;103498.13;3604642;39;20048;-64
2023/12/17 10:23:15;;;;;;;23.60;16.38;;;;;;;8.60;98.68;103496.31;3604039;39;20095;-65
2023/12/17 10:25:43;;;;;;;26.20;16.67;;;;;;;8.57;98.42;103503.53;3604480;39;20059;-64
2023/12/17 10:28:11;;;;;;;23.52;16.55;;;;;;;8.59;98.81;103499.91;3604502;39;20439;-64
2023/12/17 10:30:41;;;;;;;28.55;18.55;;;;;;;8.58;98.62;103491.88;3608268;39;20047;-63
2023/12/17 10:33:10;;;;;;;26.23;17.70;;;;;;;8.59;98.83;103486.53;3600691;39;20399;-65
2023/12/17 10:35:36;;;;;;;30.30;19.35;;;;;;;8.64;99.16;103491.81;3607218;39;20082;-64
2023/12/17 10:38:08;;;;;;;32.05;19.02;;;;;;;8.54;98.65;103466.03;3605860;39;20059;-65
2023/12/17 10:40:36;;;;;;;29.83;18.50;;;;;;;8.68;98.72;103480.13;3605090;39;20047;-63
2023/12/17 10:43:05;;;;;;;26.88;17.90;;;;;;;8.68;98.41;103474.78;3605514;39;20383;-65
2023/12/17 10:45:34;;;;;;;27.65;18.23;;;;;;;8.74;98.04;103471.16;3605645;39;20051;-63
2023/12/17 10:48:02;;;;;;;27.63;18.42;;;;;;;8.66;97.61;103448.88;3606271;39;20056;-63
2023/12/17 10:50:28;;;;;;;27.90;19.00;;;;;;;8.83;98.32;103465.69;3606603;39;20265;-63
2023/12/17 10:52:54;;;;;;;30.20;18.75;;;;;;;8.88;97.73;103469.19;3607321;39;20046;-63
2023/12/17 10:55:21;;;;;;;29.05;19.00;;;;;;;9.01;98.04;103454.72;3606005;39;20264;-63
2023/12/17 10:58:09;;;;;;;27.30;18.08;;;;;;;9.16;97.58;103453.59;3605465;39;20058;-63
2023/12/17 11:00:39;;;;;;;30.85;18.52;;;;;;;9.32;96.32;103456.97;3606052;39;20051;-63
2023/12/17 11:03:09;;;;;;;23.08;15.95;;;;;;;9.50;94.21;103450.44;3604959;39;20310;-63